CheckWX is a tool to help pilots better visualize weather data.  It is not intended as a substitute for an official pre-flight weather briefing.

06:53:20 UTC

MMQT TAF
Querétaro Intercontinental Airport
Querétaro, Mexico
TAF MMQT 180519Z 1806/1906 08005KT 6SM HZ SCT020 BKN250 TEMPO 1812/1815 3SM BR BKN015 FM181800 03010KT P6SM SCT030 BKN200 TEMPO 1822/1902 4SM TSRA BKN020CB

Jun-18@
06:00 UTC

Jun-18 @ 06:00 UTC

Jun-18@
18:00 UTC

Jun-18 @ 18:00 UTC

TAF MMQT 180519Z 1806/1906 08005KT 6SM HZ SCT020 BKN250
Wind
  • 080° at 5 KTS
Conditions
Haze
Cloud Levels
  • Scattered at 2,000' AGL
  • Broken at 25,000' AGL

Jun-18@
12:00 UTC

Jun-18 @ 12:00 UTC

Jun-18@
15:00 UTC

Jun-18 @ 15:00 UTC

TEMPO 1812/1815 3SM BR BKN015

Temporary

Temporary Changes expected for less than half the time period

Conditions
Mist
Cloud Levels
  • Broken at 1,500' AGL

Jun-18@
18:00 UTC

Jun-18 @ 18:00 UTC

Jun-19@
06:00 UTC

Jun-19 @ 06:00 UTC

FM181800 03010KT P6SM SCT030 BKN200

From

From Standard forecast or significant change

Wind
  • 030° at 10 KTS
Cloud Levels
  • Scattered at 3,000' AGL
  • Broken at 20,000' AGL

Jun-18@
22:00 UTC

Jun-18 @ 22:00 UTC

Jun-19@
02:00 UTC

Jun-19 @ 02:00 UTC

TEMPO 1822/1902 4SM TSRA BKN020CB

Temporary

Temporary Changes expected for less than half the time period

Conditions
Thunderstorm, Rain
Cloud Levels
  • Broken at 2,000' AGL